Time;durP1;ratioP1;P1;durP2;ratioP2;P2;SDS_P1;SDS_P2;PMS_P1;PMS_P2;Temp;Humidity;BMP_temperature;BMP_pressure;BME280_temperature;BME280_humidity;BME280_pressure;Samples;Min_cycle;Max_cycle;Signal;HPM_P1;HPM_P2
2022/04/17 00:01:44;;;;;;;9.37;5.20;;;;;;;17.62;52.63;99057.31;5113289;28;20205;-53
2022/04/17 00:04:14;;;;;;;7.30;5.30;;;;;;;17.62;52.80;99061.72;5112918;28;20237;-53
2022/04/17 00:06:41;;;;;;;6.93;5.03;;;;;;;17.54;52.91;99056.13;5113119;28;20268;-54
2022/04/17 00:09:09;;;;;;;5.80;5.27;;;;;;;17.43;52.89;99044.56;5112959;28;20359;-53
2022/04/17 00:11:36;;;;;;;5.97;5.07;;;;;;;17.40;52.56;99052.63;5112994;28;20467;-50
2022/04/17 00:14:04;;;;;;;5.30;4.80;;;;;;;17.40;51.75;99054.41;5112604;28;20194;-50
2022/04/17 00:16:31;;;;;;;5.53;5.03;;;;;;;17.41;52.15;99056.94;5112901;28;20186;-53
2022/04/17 00:18:58;;;;;;;7.90;5.17;;;;;;;17.38;52.91;99051.06;5112926;28;20655;-50
2022/04/17 00:21:25;;;;;;;6.87;5.60;;;;;;;17.38;52.99;99057.13;5112784;28;20592;-51
2022/04/17 00:23:52;;;;;;;5.70;5.20;;;;;;;17.40;52.92;99057.88;5112587;28;20198;-52
2022/04/17 00:26:19;;;;;;;6.23;5.60;;;;;;;17.47;52.25;99057.50;5112560;28;20617;-51
2022/04/17 00:28:46;;;;;;;8.07;5.37;;;;;;;17.50;52.23;99052.88;5112798;28;20203;-51
2022/04/17 00:31:15;;;;;;;6.47;5.37;;;;;;;17.51;52.61;99057.19;5111370;28;20248;-51
2022/04/17 00:33:42;;;;;;;7.97;5.63;;;;;;;17.45;52.53;99046.25;5112461;28;20198;-51
2022/04/17 00:36:09;;;;;;;7.97;7.10;;;;;;;17.45;52.29;99049.72;5112684;28;20642;-51
2022/04/17 00:38:36;;;;;;;6.43;5.63;;;;;;;17.25;52.55;99022.13;5112542;28;20252;-51
2022/04/17 00:41:03;;;;;;;8.47;6.63;;;;;;;17.47;52.60;99055.72;5112190;28;20194;-53
2022/04/17 00:43:32;;;;;;;9.33;6.73;;;;;;;17.47;52.45;99053.09;5112460;28;20191;-50
2022/04/17 00:45:59;;;;;;;8.57;7.27;;;;;;;17.35;52.84;99038.97;5111863;28;20258;-51
2022/04/17 00:48:27;;;;;;;11.93;7.40;;;;;;;17.42;52.82;99049.91;5112274;28;20197;-51
2022/04/17 00:50:57;;;;;;;8.97;7.40;;;;;;;17.41;52.44;99054.31;5112139;28;20599;-53
2022/04/17 00:53:26;;;;;;;7.60;6.90;;;;;;;17.45;52.56;99051.50;5112094;28;20202;-53
2022/04/17 00:55:54;;;;;;;9.03;6.80;;;;;;;17.41;52.27;99049.06;5111969;28;20276;-53
2022/04/17 00:58:21;;;;;;;7.30;6.47;;;;;;;17.37;52.45;99044.13;5112552;28;20198;-53
2022/04/17 01:00:48;;;;;;;9.53;5.80;;;;;;;17.37;52.42;99052.84;5112248;28;20202;-53
2022/04/17 01:03:17;;;;;;;7.23;6.20;;;;;;;17.21;52.43;99025.03;5111822;28;20195;-53
2022/04/17 01:05:46;;;;;;;7.47;6.23;;;;;;;17.13;54.32;99057.00;5112182;28;20229;-53
2022/04/17 01:08:14;;;;;;;7.30;6.43;;;;;;;17.03;54.89;99051.50;5111589;28;20251;-51
2022/04/17 01:10:42;;;;;;;6.60;6.07;;;;;;;16.94;54.77;99048.59;5112120;28;20718;-53
2022/04/17 01:13:09;;;;;;;7.97;5.97;;;;;;;16.88;56.04;99048.97;5111907;28;20197;-54
2022/04/17 01:15:37;;;;;;;9.70;5.97;;;;;;;16.74;57.57;99051.59;5111746;28;20197;-54
2022/04/17 01:18:04;;;;;;;8.70;6.23;;;;;;;16.69;57.69;99052.75;5111595;28;20203;-53
2022/04/17 01:20:31;;;;;;;10.43;6.67;;;;;;;16.64;58.83;99049.53;5111589;28;20197;-53
2022/04/17 01:28:26;;;;;;;8.47;7.73;;;;;;;16.49;61.43;99044.34;5111554;28;20209;-54
2022/04/17 01:30:53;;;;;;;10.27;7.67;;;;;;;16.38;62.32;99044.16;5111514;28;20201;-54
2022/04/17 01:33:21;;;;;;;10.30;7.63;;;;;;;16.27;62.36;99027.31;5111445;28;20558;-54
2022/04/17 01:35:48;;;;;;;10.47;7.33;;;;;;;16.39;61.96;99036.22;5111484;28;20578;-54
2022/04/17 01:38:17;;;;;;;8.50;7.80;;;;;;;16.38;61.63;99042.38;5111235;28;20202;-52
2022/04/17 01:40:44;;;;;;;13.10;8.00;;;;;;;16.44;61.75;99056.91;5111215;28;20212;-53
2022/04/17 01:43:11;;;;;;;8.87;7.80;;;;;;;16.46;61.13;99044.56;5110980;28;20194;-53
2022/04/17 01:45:39;;;;;;;8.60;7.80;;;;;;;16.54;60.89;99044.94;5111083;28;20222;-54
2022/04/17 01:48:06;;;;;;;9.37;8.10;;;;;;;16.53;60.56;99046.69;5110843;28;20209;-54
2022/04/17 01:50:33;;;;;;;15.00;8.30;;;;;;;16.50;61.17;99041.63;5111457;28;20202;-54
2022/04/17 01:53:00;;;;;;;11.30;8.47;;;;;;;16.55;60.28;99041.38;5111133;28;20202;-54
2022/04/17 01:55:29;;;;;;;12.30;8.07;;;;;;;16.63;59.87;99036.53;5110880;28;20201;-52
2022/04/17 01:57:57;;;;;;;8.10;7.40;;;;;;;16.76;59.21;99040.09;5110988;28;20289;-53
2022/04/17 02:00:24;;;;;;;10.17;7.20;;;;;;;16.62;60.14;99033.06;5110908;28;20743;-54
2022/04/17 02:02:51;;;;;;;8.40;7.50;;;;;;;16.54;60.16;99029.22;5110897;28;20320;-49
2022/04/17 02:05:18;;;;;;;8.50;7.60;;;;;;;16.53;59.92;99023.13;5110798;28;20194;-50
2022/04/17 02:07:45;;;;;;;7.40;6.70;;;;;;;16.67;59.65;99031.03;5110729;28;20219;-54
2022/04/17 02:10:17;;;;;;;12.23;7.10;;;;;;;16.52;60.13;99026.69;5110719;28;20199;-53
2022/04/17 02:12:46;;;;;;;7.10;6.60;;;;;;;16.52;59.80;99024.06;5110742;28;20279;-51
2022/04/17 02:15:14;;;;;;;7.87;7.17;;;;;;;16.58;59.25;99022.84;5110556;28;20558;-52
2022/04/17 02:17:41;;;;;;;7.97;7.17;;;;;;;16.62;59.41;99024.38;5110633;28;20198;-52
2022/04/17 02:20:10;;;;;;;10.13;6.93;;;;;;;16.48;60.38;99024.34;5110439;28;20191;-54
2022/04/17 02:22:37;;;;;;;7.40;6.80;;;;;;;16.48;59.67;99019.94;5110719;28;20569;-54
2022/04/17 02:25:05;;;;;;;7.43;6.93;;;;;;;16.55;60.40;99023.88;5110465;28;20197;-51
2022/04/17 02:27:32;;;;;;;8.73;7.67;;;;;;;16.56;60.35;99022.94;5110326;28;20313;-54
2022/04/17 02:30:00;;;;;;;8.80;6.97;;;;;;;16.57;60.73;99027.25;5110761;28;20194;-54
2022/04/17 02:32:27;;;;;;;8.73;6.80;;;;;;;16.63;61.04;99028.66;5110639;28;20221;-54
2022/04/17 02:34:54;;;;;;;9.80;7.50;;;;;;;16.75;60.38;99038.41;5110608;28;20629;-51
2022/04/17 02:37:21;;;;;;;8.33;7.40;;;;;;;16.67;60.10;99036.25;5110347;28;20195;-53
2022/04/17 02:39:48;;;;;;;7.33;6.83;;;;;;;16.69;62.04;99039.63;5110382;28;20194;-52
2022/04/17 02:42:15;;;;;;;10.50;7.33;;;;;;;16.51;62.78;99032.84;5110336;28;20579;-53
2022/04/17 02:44:41;;;;;;;9.17;7.50;;;;;;;16.37;63.61;99038.06;5110597;28;20191;-54
2022/04/17 02:49:54;;;;;;;8.03;7.17;;;;;;;16.32;62.95;99025.28;5110335;28;20282;-51
2022/04/17 02:52:21;;;;;;;7.90;7.20;;;;;;;16.37;62.21;99024.13;5110185;28;20201;-50
2022/04/17 02:54:48;;;;;;;9.30;7.33;;;;;;;16.31;62.51;99018.34;5114026;28;20578;-51
2022/04/17 02:57:15;;;;;;;8.80;7.43;;;;;;;16.32;62.11;99022.66;5114424;28;20194;-51
2022/04/17 02:59:42;;;;;;;8.23;7.53;;;;;;;16.35;61.32;99019.00;5114751;28;20582;-51
2022/04/17 03:07:51;;;;;;;10.77;6.07;;;;;;;16.51;58.98;99022.38;5051254;28;20720;-51
2022/04/17 03:10:18;;;;;;;6.80;6.30;;;;;;;16.59;58.92;99032.41;5098716;28;20195;-53
2022/04/17 03:12:44;;;;;;;7.60;5.93;;;;;;;16.58;58.66;99028.94;5114402;28;20190;-54
2022/04/17 03:15:11;;;;;;;6.13;5.63;;;;;;;16.53;58.34;99032.75;5113931;28;20201;-54
2022/04/17 03:17:40;;;;;;;6.20;5.27;;;;;;;16.57;57.74;99034.25;5114069;28;20195;-54
2022/04/17 03:20:08;;;;;;;5.63;5.07;;;;;;;16.55;57.41;99036.97;5113829;28;20195;-54
2022/04/17 03:22:35;;;;;;;5.27;4.77;;;;;;;16.55;55.82;99026.50;5113167;28;20195;-53
2022/04/17 03:25:02;;;;;;;6.20;4.57;;;;;;;16.53;54.51;99033.59;5113876;28;20198;-54
2022/04/17 03:27:29;;;;;;;5.63;4.27;;;;;;;16.41;54.72;99036.97;5113917;28;20242;-54
2022/04/17 03:29:56;;;;;;;4.97;4.57;;;;;;;16.32;55.25;99035.75;5113658;28;20195;-54
2022/04/17 03:32:23;;;;;;;9.13;4.63;;;;;;;16.20;55.98;99043.47;5113883;28;20194;-54
2022/04/17 03:34:51;;;;;;;7.07;4.63;;;;;;;16.02;56.44;99027.09;5113718;28;20194;-54
2022/04/17 03:37:18;;;;;;;4.37;3.97;;;;;;;16.04;57.06;99040.06;5113548;28;20238;-53
2022/04/17 03:39:48;;;;;;;6.20;4.80;;;;;;;15.97;58.14;99052.69;5113701;28;20218;-54
2022/04/17 03:42:15;;;;;;;5.13;4.67;;;;;;;15.81;60.65;99051.88;5113391;28;20235;-53
2022/04/17 03:44:42;;;;;;;5.27;4.23;;;;;;;15.78;61.26;99052.91;5113577;28;20190;-50
2022/04/17 03:47:09;;;;;;;6.87;4.73;;;;;;;15.64;63.06;99054.63;5113375;28;20215;-50
2022/04/17 03:49:36;;;;;;;6.17;4.73;;;;;;;15.49;64.90;99067.59;5113547;28;20191;-52
2022/04/17 03:52:05;;;;;;;5.97;5.47;;;;;;;15.27;68.60;99062.72;5113565;28;20582;-52
2022/04/17 03:54:31;;;;;;;7.03;5.30;;;;;;;15.15;71.19;99059.91;5113551;28;20711;-51
2022/04/17 03:56:58;;;;;;;6.30;5.80;;;;;;;15.03;75.35;99065.81;5113088;28;20194;-53
2022/04/17 03:59:25;;;;;;;6.03;5.57;;;;;;;14.87;76.67;99071.88;5113471;28;20587;-53
2022/04/17 04:01:52;;;;;;;6.10;5.53;;;;;;;14.83;79.62;99069.50;5113053;28;20205;-51
2022/04/17 04:04:19;;;;;;;6.93;6.43;;;;;;;14.70;83.33;99064.06;5112767;28;20201;-53
2022/04/17 04:06:46;;;;;;;7.43;6.73;;;;;;;14.57;87.79;99067.41;5113048;28;20223;-52
2022/04/17 04:09:14;;;;;;;7.77;7.23;;;;;;;14.41;91.10;99078.66;5122478;27;20205;-52
2022/04/17 04:11:41;;;;;;;10.03;8.27;;;;;;;14.30;95.88;99078.34;5131490;27;20244;-52
2022/04/17 04:14:08;;;;;;;9.30;8.43;;;;;;;14.15;99.45;99071.28;5132340;27;20194;-53
2022/04/17 04:16:35;;;;;;;8.90;8.27;;;;;;;14.04;100.00;99077.03;5131230;27;20197;-53
2022/04/17 04:19:02;;;;;;;8.30;7.57;;;;;;;13.92;100.00;99074.19;5113598;27;20248;-53
2022/04/17 04:21:29;;;;;;;9.00;8.30;;;;;;;13.71;100.00;99068.25;5112584;28;20226;-51
2022/04/17 04:23:56;;;;;;;11.10;10.20;;;;;;;13.71;100.00;99081.28;5111682;28;20222;-53
2022/04/17 04:26:25;;;;;;;12.27;11.20;;;;;;;13.68;100.00;99090.09;5112061;28;20317;-53
2022/04/17 04:28:51;;;;;;;9.63;8.73;;;;;;;13.57;100.00;99092.38;5115094;27;20578;-52
2022/04/17 04:31:17;;;;;;;9.67;8.87;;;;;;;13.49;100.00;99085.84;5112321;28;20225;-53
2022/04/17 04:33:44;;;;;;;10.77;9.50;;;;;;;13.45;100.00;99098.16;5117432;27;20217;-52
2022/04/17 04:36:12;;;;;;;10.17;9.27;;;;;;;13.30;100.00;99088.47;5120425;27;20621;-55
2022/04/17 04:38:40;;;;;;;12.80;10.53;;;;;;;13.33;100.00;99096.13;5126317;27;20685;-55
2022/04/17 04:41:07;;;;;;;11.40;10.40;;;;;;;13.29;100.00;99105.03;5132345;27;20224;-53
2022/04/17 04:43:35;;;;;;;12.97;11.70;;;;;;;13.19;100.00;99108.97;5132527;27;20609;-52
2022/04/17 04:46:07;;;;;;;15.17;12.40;;;;;;;13.15;100.00;99104.81;5129626;27;20222;-52
2022/04/17 04:51:19;;;;;;;13.80;12.30;;;;;;;13.13;100.00;99109.22;5121085;27;20221;-53
2022/04/17 04:53:45;;;;;;;12.73;11.67;;;;;;;13.08;100.00;99112.91;5110508;28;20205;-51
2022/04/17 04:56:13;;;;;;;11.17;10.27;;;;;;;13.03;100.00;99114.84;5111586;28;20299;-53
2022/04/17 04:58:41;;;;;;;11.80;10.77;;;;;;;12.92;100.00;99119.69;5113447;27;20191;-54
2022/04/17 05:01:09;;;;;;;11.80;10.70;;;;;;;12.91;100.00;99115.41;5110329;27;20272;-51
2022/04/17 05:03:36;;;;;;;12.27;11.17;;;;;;;12.94;100.00;99117.03;5111079;27;20607;-51
2022/04/17 05:06:03;;;;;;;13.10;11.90;;;;;;;12.95;100.00;99119.56;5109964;28;20268;-51
2022/04/17 05:08:31;;;;;;;12.20;11.13;;;;;;;12.96;100.00;99113.44;5120361;27;20236;-51
2022/04/17 05:10:58;;;;;;;14.37;12.97;;;;;;;12.94;100.00;99123.09;5131410;27;20190;-50
2022/04/17 05:13:24;;;;;;;13.10;11.83;;;;;;;12.96;100.00;99123.03;5121907;27;20422;-53
2022/04/17 05:15:53;;;;;;;12.57;11.43;;;;;;;12.84;100.00;99129.63;5118879;27;21147;-54
2022/04/17 05:18:20;;;;;;;13.70;12.03;;;;;;;12.82;100.00;99130.59;5117067;27;20642;-54
2022/04/17 05:20:47;;;;;;;13.67;12.23;;;;;;;12.78;100.00;99137.69;5120157;27;20190;-54
2022/04/17 05:23:18;;;;;;;11.67;10.70;;;;;;;12.69;100.00;99130.28;5121503;27;20192;-53
2022/04/17 05:25:47;;;;;;;12.70;11.53;;;;;;;12.70;100.00;99139.78;5131125;27;20285;-50
2022/04/17 05:28:14;;;;;;;12.47;11.27;;;;;;;12.58;100.00;99132.50;5123421;27;20222;-52
2022/04/17 05:30:41;;;;;;;12.63;11.30;;;;;;;12.50;100.00;99134.59;5118444;27;20213;-52
2022/04/17 05:33:10;;;;;;;13.50;12.23;;;;;;;12.48;100.00;99139.00;5090851;28;20210;-52
2022/04/17 05:35:37;;;;;;;14.20;12.73;;;;;;;12.42;100.00;99134.03;5111298;28;20680;-52
2022/04/17 05:38:04;;;;;;;14.70;13.30;;;;;;;12.39;100.00;99137.66;5111229;28;20197;-51
2022/04/17 05:40:35;;;;;;;14.87;13.63;;;;;;;12.44;100.00;99140.03;5111748;28;20191;-52
2022/04/17 05:43:03;;;;;;;18.87;15.73;;;;;;;12.43;100.00;99154.81;5118636;27;20190;-52
2022/04/17 05:45:30;;;;;;;24.63;18.00;;;;;;;12.43;100.00;99138.34;5120652;27;20689;-51
2022/04/17 05:47:58;;;;;;;24.83;19.73;;;;;;;12.43;100.00;99139.19;5119242;27;20217;-52
2022/04/17 05:50:28;;;;;;;23.23;19.87;;;;;;;12.33;100.00;99123.13;5119543;27;20202;-52
2022/04/17 05:52:55;;;;;;;22.47;20.10;;;;;;;12.50;100.00;99145.84;5116636;27;20210;-53
2022/04/17 05:55:22;;;;;;;19.67;17.57;;;;;;;12.48;100.00;99141.63;5119601;27;20200;-53
2022/04/17 05:57:49;;;;;;;17.13;15.10;;;;;;;12.41;100.00;99141.03;5119688;27;20194;-52
2022/04/17 06:00:16;;;;;;;16.57;14.83;;;;;;;12.32;100.00;99144.84;5118236;27;20187;-50
2022/04/17 06:02:44;;;;;;;16.43;14.73;;;;;;;12.24;100.00;99136.53;5116650;27;20194;-52
2022/04/17 06:05:11;;;;;;;18.20;14.37;;;;;;;12.32;100.00;99142.25;5117303;27;20694;-52
2022/04/17 06:07:40;;;;;;;15.40;13.90;;;;;;;12.15;100.00;99118.69;5110090;27;20717;-52
2022/04/17 06:10:09;;;;;;;15.90;14.30;;;;;;;12.26;100.00;99133.88;5123474;27;20193;-52
2022/04/17 06:12:36;;;;;;;15.47;14.03;;;;;;;12.34;100.00;99135.22;5115093;27;20197;-52
2022/04/17 06:15:06;;;;;;;18.13;14.40;;;;;;;12.33;100.00;99127.47;5115112;27;20603;-53
2022/04/17 06:17:37;;;;;;;15.20;13.63;;;;;;;12.33;100.00;99137.88;5118301;27;20196;-52
2022/04/17 06:20:06;;;;;;;14.37;12.77;;;;;;;12.28;100.00;99130.28;5119916;27;20573;-52
2022/04/17 06:22:34;;;;;;;14.37;13.03;;;;;;;12.19;100.00;99125.44;5118515;27;20677;-52
2022/04/17 06:25:04;;;;;;;16.97;13.37;;;;;;;12.05;100.00;99127.78;5119798;27;20545;-53
2022/04/17 06:27:42;;;;;;;14.90;13.47;;;;;;;12.00;100.00;99132.31;5123382;27;20218;-52
2022/04/17 06:30:11;;;;;;;15.90;12.67;;;;;;;11.94;100.00;99130.00;5118039;27;20285;-52
2022/04/17 06:32:38;;;;;;;15.50;13.87;;;;;;;11.91;100.00;99117.94;5120807;27;20194;-52
2022/04/17 06:35:06;;;;;;;14.57;13.13;;;;;;;11.96;100.00;99129.00;5123922;27;20270;-52
2022/04/17 06:37:45;;;;;;;15.47;13.90;;;;;;;12.04;100.00;99120.91;5115074;28;20186;-52
2022/04/17 06:40:15;;;;;;;14.50;13.07;;;;;;;11.99;100.00;99123.66;5117062;28;20696;-52
2022/04/17 06:42:42;;;;;;;15.13;13.60;;;;;;;11.93;100.00;99117.88;5118428;28;20190;-52
2022/04/17 06:45:10;;;;;;;14.87;13.27;;;;;;;11.84;100.00;99126.06;5120068;28;20759;-52
2022/04/17 06:47:37;;;;;;;16.33;14.63;;;;;;;11.92;100.00;99124.00;5118276;28;20221;-52
2022/04/17 06:50:04;;;;;;;17.37;15.20;;;;;;;11.90;100.00;99128.41;5116045;28;20190;-53
2022/04/17 06:52:31;;;;;;;17.03;15.43;;;;;;;11.98;100.00;99121.13;5110321;28;20581;-51
2022/04/17 06:54:58;;;;;;;17.27;15.57;;;;;;;11.97;100.00;99124.63;5116751;28;20186;-55
2022/04/17 06:57:30;;;;;;;16.97;15.33;;;;;;;11.98;100.00;99127.19;5121743;28;20553;-54
2022/04/17 06:59:57;;;;;;;18.17;16.17;;;;;;;12.05;100.00;99127.78;5114502;28;20671;-54
2022/04/17 07:02:24;;;;;;;20.50;17.20;;;;;;;12.14;100.00;99131.78;5118976;28;20189;-54
2022/04/17 07:04:51;;;;;;;19.77;16.47;;;;;;;12.13;100.00;99130.06;5119667;28;20204;-54
2022/04/17 07:07:18;;;;;;;20.00;17.87;;;;;;;12.18;100.00;99142.00;5117825;28;20218;-54
2022/04/17 07:09:45;;;;;;;20.30;18.07;;;;;;;12.18;100.00;99134.19;5118630;28;20190;-55
2022/04/17 07:12:12;;;;;;;20.60;17.63;;;;;;;12.22;100.00;99135.75;5120089;28;20220;-54
2022/04/17 07:14:40;;;;;;;21.17;18.97;;;;;;;12.17;100.00;99140.31;5110206;28;20206;-52
2022/04/17 07:17:07;;;;;;;22.50;19.63;;;;;;;12.08;100.00;99122.44;5123528;28;20225;-51
2022/04/17 07:19:34;;;;;;;25.50;20.20;;;;;;;12.11;100.00;99137.94;5119011;28;20209;-54
2022/04/17 07:22:01;;;;;;;23.27;18.57;;;;;;;12.13;100.00;99149.13;5125357;28;20201;-53
2022/04/17 07:24:28;;;;;;;23.10;19.40;;;;;;;12.00;100.00;99140.13;5130368;28;20194;-54
2022/04/17 07:26:56;;;;;;;24.03;19.47;;;;;;;12.04;100.00;99141.72;5128602;28;20229;-54
2022/04/17 07:29:23;;;;;;;23.87;18.83;;;;;;;12.11;100.00;99150.94;5130086;28;20723;-54
2022/04/17 07:31:53;;;;;;;21.67;19.07;;;;;;;12.12;100.00;99154.41;5128633;28;20222;-54
2022/04/17 07:34:20;;;;;;;20.87;17.60;;;;;;;12.10;100.00;99154.44;5118990;28;20649;-54
2022/04/17 07:36:47;;;;;;;19.20;17.23;;;;;;;12.02;100.00;99156.53;5117688;28;20198;-55
2022/04/17 07:39:17;;;;;;;20.63;18.37;;;;;;;12.05;100.00;99158.16;5119745;27;20198;-53
2022/04/17 07:41:45;;;;;;;21.20;18.87;;;;;;;12.07;100.00;99151.16;5123094;27;20199;-55
2022/04/17 07:44:12;;;;;;;19.90;17.40;;;;;;;12.09;100.00;99147.56;5118687;27;20747;-54
2022/04/17 07:46:39;;;;;;;20.60;18.20;;;;;;;12.10;100.00;99145.78;5122630;27;20661;-53
2022/04/17 07:49:08;;;;;;;23.23;19.33;;;;;;;12.08;100.00;99142.41;5123184;27;20225;-53
2022/04/17 07:51:35;;;;;;;20.70;18.67;;;;;;;12.11;100.00;99148.34;5121715;27;20194;-54
2022/04/17 07:54:03;;;;;;;20.80;18.70;;;;;;;12.02;100.00;99132.28;5121786;27;20190;-54
2022/04/17 07:56:30;;;;;;;21.90;19.67;;;;;;;12.09;100.00;99136.31;5123162;27;20573;-54
2022/04/17 07:58:57;;;;;;;22.47;20.17;;;;;;;12.16;100.00;99138.59;5121540;27;20217;-54
2022/04/17 08:01:24;;;;;;;19.83;17.63;;;;;;;12.18;100.00;99146.34;5121066;27;20214;-54
2022/04/17 08:03:50;;;;;;;23.57;17.97;;;;;;;12.19;100.00;99148.03;5122406;27;20195;-54
2022/04/17 08:06:20;;;;;;;21.37;19.07;;;;;;;12.11;100.00;99137.94;5121864;27;20206;-54
2022/04/17 08:08:50;;;;;;;21.57;19.37;;;;;;;12.11;100.00;99134.47;5122709;27;20206;-54
2022/04/17 08:11:18;;;;;;;20.43;18.43;;;;;;;12.06;100.00;99129.50;5121263;27;20294;-54
2022/04/17 08:13:46;;;;;;;21.23;19.03;;;;;;;12.01;100.00;99113.22;5121165;27;20606;-54
2022/04/17 08:16:14;;;;;;;22.03;19.53;;;;;;;12.12;100.00;99115.38;5118223;27;20226;-54
2022/04/17 08:18:41;;;;;;;20.80;18.80;;;;;;;12.15;100.00;99123.06;5121321;27;20204;-54
2022/04/17 08:21:08;;;;;;;20.50;18.23;;;;;;;12.21;100.00;99117.59;5124907;27;20729;-54
2022/04/17 08:23:37;;;;;;;20.57;18.60;;;;;;;12.18;100.00;99107.31;5125516;27;20198;-53
2022/04/17 08:26:05;;;;;;;21.73;19.53;;;;;;;12.23;100.00;99111.41;5120529;27;20341;-52
2022/04/17 08:28:33;;;;;;;22.30;19.90;;;;;;;12.32;100.00;99123.19;5125471;27;20278;-52
2022/04/17 08:31:00;;;;;;;20.77;18.67;;;;;;;12.29;100.00;99120.72;5133175;27;20202;-52
2022/04/17 08:33:27;;;;;;;22.07;19.80;;;;;;;12.29;100.00;99125.94;5132852;27;20216;-53
2022/04/17 08:35:55;;;;;;;25.00;22.00;;;;;;;12.34;100.00;99132.63;5124922;27;20205;-53
2022/04/17 08:38:22;;;;;;;26.90;22.83;;;;;;;12.48;100.00;99136.41;5111756;28;20191;-55
2022/04/17 08:40:51;;;;;;;36.40;24.67;;;;;;;12.50;100.00;99126.78;5112663;28;20580;-51
2022/04/17 08:43:22;;;;;;;24.73;22.10;;;;;;;12.52;100.00;99122.38;5112044;28;20195;-51
2022/04/17 08:45:51;;;;;;;29.13;23.13;;;;;;;12.59;100.00;99115.97;5125592;27;20213;-53
2022/04/17 08:48:18;;;;;;;24.07;21.57;;;;;;;12.62;100.00;99110.63;5121773;27;20214;-53
2022/04/17 08:50:47;;;;;;;24.03;21.43;;;;;;;12.69;100.00;99117.25;5118746;27;20187;-53
2022/04/17 08:53:16;;;;;;;24.37;21.77;;;;;;;12.69;100.00;99118.09;5119610;27;20194;-51
2022/04/17 08:55:44;;;;;;;23.80;21.30;;;;;;;12.67;100.00;99113.88;5120274;27;20190;-54
2022/04/17 08:58:12;;;;;;;22.60;20.17;;;;;;;12.72;100.00;99111.91;5123108;27;20636;-54
2022/04/17 09:00:40;;;;;;;21.87;19.67;;;;;;;12.74;100.00;99102.28;5121910;27;20662;-50
2022/04/17 09:03:09;;;;;;;19.40;17.50;;;;;;;12.71;100.00;99094.59;5117377;27;20240;-52
2022/04/17 09:05:37;;;;;;;20.80;17.77;;;;;;;12.76;100.00;99103.03;5121576;27;20243;-51
2022/04/17 09:08:14;;;;;;;19.83;17.90;;;;;;;12.77;100.00;99090.88;5120792;27;20223;-53
2022/04/17 09:10:41;;;;;;;19.40;17.40;;;;;;;12.75;100.00;99095.31;5112654;27;20191;-53
2022/04/17 09:13:08;;;;;;;21.17;19.07;;;;;;;12.89;100.00;99098.97;5111744;28;20196;-51
2022/04/17 09:15:38;;;;;;;20.63;18.17;;;;;;;12.86;100.00;99088.72;5111758;28;20202;-53
2022/04/17 09:18:08;;;;;;;18.07;16.27;;;;;;;12.83;100.00;99093.22;5111430;28;20191;-53
2022/04/17 09:20:34;;;;;;;17.93;16.17;;;;;;;12.74;100.00;99094.47;5114402;27;20193;-51
2022/04/17 09:23:02;;;;;;;17.73;16.00;;;;;;;12.75;100.00;99097.94;5120899;27;20187;-52
2022/04/17 09:25:30;;;;;;;17.53;15.90;;;;;;;12.62;100.00;99092.41;5114047;27;20182;-52
2022/04/17 09:27:59;;;;;;;17.30;15.60;;;;;;;12.61;100.00;99088.97;5122724;27;20236;-52
2022/04/17 09:30:28;;;;;;;16.10;14.43;;;;;;;12.53;100.00;99098.00;5120721;27;20198;-52
2022/04/17 09:32:57;;;;;;;14.67;13.27;;;;;;;12.57;100.00;99099.56;5110892;28;20317;-52
2022/04/17 09:35:24;;;;;;;15.30;13.77;;;;;;;12.46;100.00;99099.19;5116947;27;20195;-52
2022/04/17 09:37:56;;;;;;;14.97;13.47;;;;;;;12.17;100.00;99085.66;5128521;27;20189;-52
2022/04/17 09:40:23;;;;;;;15.80;14.03;;;;;;;12.19;100.00;99078.63;5131557;27;20198;-52
2022/04/17 09:42:50;;;;;;;15.63;14.13;;;;;;;12.20;100.00;99090.72;5131533;27;20202;-51
2022/04/17 09:45:17;;;;;;;15.33;13.73;;;;;;;12.21;100.00;99074.19;5131264;27;20202;-52
2022/04/17 09:47:57;;;;;;;16.33;14.73;;;;;;;12.23;100.00;99074.97;5130690;27;20198;-53
2022/04/17 09:50:32;;;;;;;15.50;13.87;;;;;;;12.21;100.00;99066.41;5120581;27;20545;-51
2022/04/17 09:53:05;;;;;;;16.37;14.63;;;;;;;12.29;100.00;99053.94;5109724;28;20197;-53
2022/04/17 09:55:38;;;;;;;15.97;14.37;;;;;;;12.31;100.00;99057.28;5116865;27;20196;-52
2022/04/17 09:58:05;;;;;;;16.30;13.90;;;;;;;12.34;100.00;99049.34;5120454;27;20186;-52
2022/04/17 10:00:42;;;;;;;15.03;13.63;;;;;;;12.34;100.00;99049.34;5124471;27;20194;-52
2022/04/17 10:03:11;;;;;;;16.20;13.13;;;;;;;12.32;100.00;99042.50;5121090;27;20213;-53
2022/04/17 10:05:39;;;;;;;15.13;13.47;;;;;;;12.27;100.00;99045.34;5119542;27;20698;-53
2022/04/17 10:08:11;;;;;;;13.03;11.73;;;;;;;12.17;100.00;99038.84;5114601;27;20197;-53
2022/04/17 10:10:38;;;;;;;12.20;11.10;;;;;;;12.14;100.00;99036.34;5119522;27;20190;-53
2022/04/17 10:13:07;;;;;;;11.37;10.27;;;;;;;12.11;100.00;99043.44;5124258;27;20201;-54
2022/04/17 10:15:35;;;;;;;9.37;8.67;;;;;;;12.03;100.00;99037.72;5119601;27;20209;-54
2022/04/17 10:18:03;;;;;;;11.50;10.47;;;;;;;11.98;100.00;99032.69;5117206;27;20645;-54
2022/04/17 10:20:32;;;;;;;9.87;9.07;;;;;;;11.87;100.00;99035.75;5115941;27;20194;-54
2022/04/17 10:23:05;;;;;;;8.17;7.47;;;;;;;11.78;100.00;99032.69;5118599;27;20596;-55
2022/04/17 10:25:34;;;;;;;9.07;8.17;;;;;;;11.73;100.00;99021.63;5118866;27;20204;-53
2022/04/17 10:28:05;;;;;;;10.07;9.20;;;;;;;11.74;100.00;99021.53;5115403;27;20227;-54
2022/04/17 10:30:43;;;;;;;9.80;8.70;;;;;;;11.68;100.00;99028.75;5117837;27;20252;-53
2022/04/17 10:33:32;;;;;;;8.23;7.63;;;;;;;11.51;100.00;99030.28;5117546;27;20210;-53
2022/04/17 10:36:23;;;;;;;8.63;7.83;;;;;;;11.51;100.00;99045.03;5117271;27;20657;-53
2022/04/17 10:39:05;;;;;;;7.80;7.20;;;;;;;11.46;100.00;99050.41;5117322;27;20206;-54
2022/04/17 10:41:32;;;;;;;8.93;8.03;;;;;;;11.43;100.00;99050.53;5120448;28;20217;-52
2022/04/17 10:44:03;;;;;;;7.03;6.37;;;;;;;11.37;100.00;99049.94;5123608;27;20638;-53
2022/04/17 10:46:30;;;;;;;6.20;5.60;;;;;;;11.31;100.00;99061.41;5119404;28;20268;-53
2022/04/17 10:49:00;;;;;;;7.20;6.63;;;;;;;11.33;100.00;99056.16;5117977;28;20221;-53
2022/04/17 10:51:30;;;;;;;7.73;6.93;;;;;;;11.30;100.00;99062.31;5109361;28;20217;-53
2022/04/17 10:54:05;;;;;;;7.83;7.03;;;;;;;11.26;100.00;99052.97;5111305;28;20620;-54
2022/04/17 10:56:34;;;;;;;7.00;6.50;;;;;;;11.21;100.00;99057.47;5113924;28;20740;-54
2022/04/17 10:59:03;;;;;;;5.10;4.80;;;;;;;11.10;100.00;99057.03;5117401;28;20210;-53
2022/04/17 11:01:56;;;;;;;5.77;5.00;;;;;;;11.11;100.00;99061.31;5116063;28;20698;-51
2022/04/17 11:04:25;;;;;;;5.77;5.03;;;;;;;10.93;100.00;99067.22;5119656;28;20604;-55
2022/04/17 11:06:56;;;;;;;5.20;4.80;;;;;;;10.88;100.00;99064.78;5118621;28;20584;-53
2022/04/17 11:09:24;;;;;;;4.67;4.37;;;;;;;10.77;100.00;99054.81;5117152;27;20242;-54
2022/04/17 11:11:52;;;;;;;5.30;4.90;;;;;;;10.72;100.00;99087.84;5119067;28;20601;-52
2022/04/17 11:14:22;;;;;;;5.00;4.70;;;;;;;10.65;100.00;99086.41;5112149;27;20219;-52
2022/04/17 11:16:50;;;;;;;6.40;5.90;;;;;;;10.60;100.00;99071.91;5116989;27;20221;-52
2022/04/17 11:19:18;;;;;;;8.83;6.60;;;;;;;10.52;100.00;99074.75;5119438;27;20215;-51
2022/04/17 11:21:47;;;;;;;5.60;5.20;;;;;;;10.46;100.00;99064.59;5121555;27;20217;-54
2022/04/17 11:24:16;;;;;;;6.63;6.00;;;;;;;10.50;100.00;99060.97;5119437;27;20754;-54
2022/04/17 11:27:09;;;;;;;6.30;5.90;;;;;;;10.47;100.00;99063.72;5120188;27;20284;-55
2022/04/17 11:29:43;;;;;;;5.57;5.17;;;;;;;10.43;100.00;99064.72;5125552;27;20214;-54
2022/04/17 11:32:52;;;;;;;5.67;5.27;;;;;;;10.43;100.00;99073.34;5132318;27;20247;-55
2022/04/17 11:35:23;;;;;;;5.97;5.57;;;;;;;10.39;100.00;99063.13;5132275;27;20198;-55
2022/04/17 11:37:52;;;;;;;6.40;5.93;;;;;;;10.37;100.00;99059.75;5122055;27;20204;-55
2022/04/17 11:40:23;;;;;;;7.97;7.37;;;;;;;10.35;100.00;99057.22;5121883;27;20666;-55
2022/04/17 11:42:52;;;;;;;5.83;5.43;;;;;;;10.31;100.00;99065.13;5117869;27;20278;-55